sensor_id;sensor_type;location;lat;lon;timestamp;P1;durP1;ratioP1;P2;durP2;ratioP2
529;SDS011;251;48.704;9.210;2023-05-09T00:02:19;4.60;;;3.17;;
529;SDS011;251;48.704;9.210;2023-05-09T00:04:47;2.93;;;2.07;;
529;SDS011;251;48.704;9.210;2023-05-09T00:07:15;12.17;;;2.80;;
529;SDS011;251;48.704;9.210;2023-05-09T00:09:42;3.37;;;2.60;;
529;SDS011;251;48.704;9.210;2023-05-09T00:12:09;4.37;;;2.83;;
529;SDS011;251;48.704;9.210;2023-05-09T00:14:36;4.20;;;2.90;;
529;SDS011;251;48.704;9.210;2023-05-09T00:17:04;5.07;;;3.17;;
529;SDS011;251;48.704;9.210;2023-05-09T00:19:31;4.13;;;3.67;;
529;SDS011;251;48.704;9.210;2023-05-09T00:21:59;3.37;;;2.60;;
529;SDS011;251;48.704;9.210;2023-05-09T00:24:27;2.80;;;1.80;;
529;SDS011;251;48.704;9.210;2023-05-09T00:26:53;4.57;;;2.80;;
529;SDS011;251;48.704;9.210;2023-05-09T00:29:20;3.37;;;2.13;;
529;SDS011;251;48.704;9.210;2023-05-09T00:31:47;2.50;;;1.80;;
529;SDS011;251;48.704;9.210;2023-05-09T00:34:14;2.60;;;2.10;;
529;SDS011;251;48.704;9.210;2023-05-09T00:36:41;3.23;;;2.10;;
529;SDS011;251;48.704;9.210;2023-05-09T00:39:08;4.13;;;2.77;;
529;SDS011;251;48.704;9.210;2023-05-09T00:41:36;3.93;;;2.40;;
529;SDS011;251;48.704;9.210;2023-05-09T00:44:03;4.40;;;2.77;;
529;SDS011;251;48.704;9.210;2023-05-09T00:46:30;2.83;;;1.63;;
529;SDS011;251;48.704;9.210;2023-05-09T00:48:57;2.70;;;1.67;;
529;SDS011;251;48.704;9.210;2023-05-09T00:51:24;4.70;;;2.83;;
529;SDS011;251;48.704;9.210;2023-05-09T00:53:52;3.03;;;2.50;;
529;SDS011;251;48.704;9.210;2023-05-09T00:56:19;2.87;;;2.20;;
529;SDS011;251;48.704;9.210;2023-05-09T00:58:47;4.50;;;3.53;;
529;SDS011;251;48.704;9.210;2023-05-09T01:01:14;3.20;;;2.10;;
529;SDS011;251;48.704;9.210;2023-05-09T01:03:41;3.80;;;3.30;;
529;SDS011;251;48.704;9.210;2023-05-09T01:06:10;6.73;;;6.13;;
529;SDS011;251;48.704;9.210;2023-05-09T01:08:43;3.27;;;1.90;;
529;SDS011;251;48.704;9.210;2023-05-09T01:11:18;2.93;;;1.83;;
529;SDS011;251;48.704;9.210;2023-05-09T01:13:54;2.40;;;1.67;;
529;SDS011;251;48.704;9.210;2023-05-09T01:16:32;5.30;;;1.93;;
529;SDS011;251;48.704;9.210;2023-05-09T01:19:06;2.80;;;2.27;;
529;SDS011;251;48.704;9.210;2023-05-09T01:21:46;3.27;;;2.20;;
529;SDS011;251;48.704;9.210;2023-05-09T01:24:22;3.63;;;2.70;;
529;SDS011;251;48.704;9.210;2023-05-09T01:29:49;5.43;;;3.10;;
529;SDS011;251;48.704;9.210;2023-05-09T01:32:22;2.70;;;2.00;;
529;SDS011;251;48.704;9.210;2023-05-09T01:34:53;3.23;;;2.50;;
529;SDS011;251;48.704;9.210;2023-05-09T01:37:22;4.97;;;2.83;;
529;SDS011;251;48.704;9.210;2023-05-09T01:39:55;3.83;;;2.57;;
529;SDS011;251;48.704;9.210;2023-05-09T01:42:25;4.93;;;2.67;;
529;SDS011;251;48.704;9.210;2023-05-09T01:44:56;3.90;;;2.60;;
529;SDS011;251;48.704;9.210;2023-05-09T01:47:24;3.17;;;2.30;;
529;SDS011;251;48.704;9.210;2023-05-09T01:49:52;5.27;;;2.80;;
529;SDS011;251;48.704;9.210;2023-05-09T01:52:21;4.33;;;2.30;;
529;SDS011;251;48.704;9.210;2023-05-09T01:54:49;4.33;;;2.07;;
529;SDS011;251;48.704;9.210;2023-05-09T01:57:17;3.87;;;2.43;;
529;SDS011;251;48.704;9.210;2023-05-09T01:59:45;3.87;;;2.30;;
529;SDS011;251;48.704;9.210;2023-05-09T02:02:14;2.73;;;2.00;;
529;SDS011;251;48.704;9.210;2023-05-09T02:04:42;2.80;;;2.13;;
529;SDS011;251;48.704;9.210;2023-05-09T02:07:11;3.53;;;2.63;;
529;SDS011;251;48.704;9.210;2023-05-09T02:09:38;4.00;;;2.47;;
529;SDS011;251;48.704;9.210;2023-05-09T02:12:05;2.90;;;2.53;;
529;SDS011;251;48.704;9.210;2023-05-09T02:14:32;4.40;;;2.60;;
529;SDS011;251;48.704;9.210;2023-05-09T02:16:59;4.00;;;2.57;;
529;SDS011;251;48.704;9.210;2023-05-09T02:19:32;3.00;;;2.43;;
529;SDS011;251;48.704;9.210;2023-05-09T02:21:59;5.97;;;2.70;;
529;SDS011;251;48.704;9.210;2023-05-09T02:24:26;3.73;;;2.33;;
529;SDS011;251;48.704;9.210;2023-05-09T02:26:54;3.97;;;3.30;;
529;SDS011;251;48.704;9.210;2023-05-09T02:29:21;4.18;;;3.80;;
529;SDS011;251;48.704;9.210;2023-05-09T02:31:55;4.30;;;3.70;;
529;SDS011;251;48.704;9.210;2023-05-09T02:34:24;4.90;;;2.70;;
529;SDS011;251;48.704;9.210;2023-05-09T02:36:53;3.70;;;2.33;;
529;SDS011;251;48.704;9.210;2023-05-09T02:39:20;4.93;;;2.77;;
529;SDS011;251;48.704;9.210;2023-05-09T02:41:47;4.90;;;2.47;;
529;SDS011;251;48.704;9.210;2023-05-09T02:44:14;3.95;;;2.90;;
529;SDS011;251;48.704;9.210;2023-05-09T02:46:41;4.80;;;3.07;;
529;SDS011;251;48.704;9.210;2023-05-09T02:49:08;4.33;;;3.20;;
529;SDS011;251;48.704;9.210;2023-05-09T02:51:35;4.63;;;3.57;;
529;SDS011;251;48.704;9.210;2023-05-09T02:54:03;3.77;;;3.37;;
529;SDS011;251;48.704;9.210;2023-05-09T02:56:30;5.27;;;3.67;;
529;SDS011;251;48.704;9.210;2023-05-09T02:58:57;6.63;;;5.27;;
529;SDS011;251;48.704;9.210;2023-05-09T03:01:24;4.73;;;3.20;;
529;SDS011;251;48.704;9.210;2023-05-09T03:03:51;4.40;;;2.93;;
529;SDS011;251;48.704;9.210;2023-05-09T03:06:19;4.10;;;2.30;;
529;SDS011;251;48.704;9.210;2023-05-09T03:08:46;5.00;;;2.63;;
529;SDS011;251;48.704;9.210;2023-05-09T03:11:14;4.70;;;3.13;;
529;SDS011;251;48.704;9.210;2023-05-09T03:13:41;4.30;;;3.03;;
529;SDS011;251;48.704;9.210;2023-05-09T03:16:10;4.83;;;3.37;;
529;SDS011;251;48.704;9.210;2023-05-09T03:18:39;8.20;;;4.57;;
529;SDS011;251;48.704;9.210;2023-05-09T03:21:06;5.97;;;4.77;;
529;SDS011;251;48.704;9.210;2023-05-09T03:23:35;5.40;;;3.80;;
529;SDS011;251;48.704;9.210;2023-05-09T03:26:02;5.53;;;4.53;;
529;SDS011;251;48.704;9.210;2023-05-09T03:28:30;3.80;;;3.07;;
529;SDS011;251;48.704;9.210;2023-05-09T03:31:00;5.10;;;3.47;;
529;SDS011;251;48.704;9.210;2023-05-09T03:33:28;5.13;;;3.40;;
529;SDS011;251;48.704;9.210;2023-05-09T03:35:56;6.37;;;3.60;;
529;SDS011;251;48.704;9.210;2023-05-09T03:38:23;6.27;;;2.97;;
529;SDS011;251;48.704;9.210;2023-05-09T03:40:50;4.90;;;3.97;;
529;SDS011;251;48.704;9.210;2023-05-09T03:43:19;4.30;;;2.97;;
529;SDS011;251;48.704;9.210;2023-05-09T03:45:47;6.80;;;4.77;;
529;SDS011;251;48.704;9.210;2023-05-09T03:48:15;4.80;;;3.13;;
529;SDS011;251;48.704;9.210;2023-05-09T03:50:47;4.50;;;2.83;;
529;SDS011;251;48.704;9.210;2023-05-09T03:53:14;4.90;;;3.37;;
529;SDS011;251;48.704;9.210;2023-05-09T03:55:43;3.50;;;2.53;;
529;SDS011;251;48.704;9.210;2023-05-09T03:58:12;9.43;;;2.93;;
529;SDS011;251;48.704;9.210;2023-05-09T04:00:40;3.97;;;3.53;;
529;SDS011;251;48.704;9.210;2023-05-09T04:03:14;3.30;;;2.53;;
529;SDS011;251;48.704;9.210;2023-05-09T04:05:44;3.37;;;2.93;;
529;SDS011;251;48.704;9.210;2023-05-09T04:08:21;5.63;;;3.77;;
529;SDS011;251;48.704;9.210;2023-05-09T04:10:48;5.50;;;3.57;;
529;SDS011;251;48.704;9.210;2023-05-09T04:13:15;2.90;;;2.00;;
529;SDS011;251;48.704;9.210;2023-05-09T04:15:41;4.50;;;3.17;;
529;SDS011;251;48.704;9.210;2023-05-09T04:18:09;3.90;;;2.43;;
529;SDS011;251;48.704;9.210;2023-05-09T04:20:37;5.07;;;2.77;;
529;SDS011;251;48.704;9.210;2023-05-09T04:23:04;5.60;;;3.50;;
529;SDS011;251;48.704;9.210;2023-05-09T04:25:31;4.43;;;3.70;;
529;SDS011;251;48.704;9.210;2023-05-09T04:28:00;6.20;;;4.77;;
529;SDS011;251;48.704;9.210;2023-05-09T04:30:29;5.30;;;3.50;;
529;SDS011;251;48.704;9.210;2023-05-09T04:32:57;3.97;;;2.67;;
529;SDS011;251;48.704;9.210;2023-05-09T04:35:26;3.63;;;2.40;;
529;SDS011;251;48.704;9.210;2023-05-09T04:37:54;5.13;;;3.47;;
529;SDS011;251;48.704;9.210;2023-05-09T04:40:22;5.20;;;3.90;;
529;SDS011;251;48.704;9.210;2023-05-09T04:42:55;4.75;;;4.15;;
529;SDS011;251;48.704;9.210;2023-05-09T04:45:25;5.47;;;3.40;;
529;SDS011;251;48.704;9.210;2023-05-09T04:47:52;6.10;;;4.17;;
529;SDS011;251;48.704;9.210;2023-05-09T04:50:19;5.30;;;4.57;;
529;SDS011;251;48.704;9.210;2023-05-09T04:52:46;6.72;;;4.28;;
529;SDS011;251;48.704;9.210;2023-05-09T04:55:17;7.63;;;5.43;;
529;SDS011;251;48.704;9.210;2023-05-09T04:57:46;10.63;;;6.90;;
529;SDS011;251;48.704;9.210;2023-05-09T05:00:13;8.10;;;5.63;;
529;SDS011;251;48.704;9.210;2023-05-09T05:02:45;5.70;;;4.60;;
529;SDS011;251;48.704;9.210;2023-05-09T05:05:11;7.63;;;5.60;;
529;SDS011;251;48.704;9.210;2023-05-09T05:07:41;8.70;;;5.87;;
529;SDS011;251;48.704;9.210;2023-05-09T05:10:10;9.98;;;6.05;;
529;SDS011;251;48.704;9.210;2023-05-09T05:12:41;7.95;;;5.25;;
529;SDS011;251;48.704;9.210;2023-05-09T05:15:10;9.82;;;6.78;;
529;SDS011;251;48.704;9.210;2023-05-09T05:17:38;8.90;;;5.60;;
529;SDS011;251;48.704;9.210;2023-05-09T05:20:07;6.53;;;5.47;;
529;SDS011;251;48.704;9.210;2023-05-09T05:22:37;8.60;;;6.77;;
529;SDS011;251;48.704;9.210;2023-05-09T05:25:04;10.10;;;6.43;;
529;SDS011;251;48.704;9.210;2023-05-09T05:27:33;11.53;;;6.67;;
529;SDS011;251;48.704;9.210;2023-05-09T05:30:01;12.53;;;5.67;;
529;SDS011;251;48.704;9.210;2023-05-09T05:32:29;11.50;;;8.50;;
529;SDS011;251;48.704;9.210;2023-05-09T05:34:56;7.47;;;6.20;;
529;SDS011;251;48.704;9.210;2023-05-09T05:37:23;9.27;;;7.37;;
529;SDS011;251;48.704;9.210;2023-05-09T05:39:50;7.37;;;5.20;;
529;SDS011;251;48.704;9.210;2023-05-09T05:42:17;9.70;;;7.83;;
529;SDS011;251;48.704;9.210;2023-05-09T05:44:44;11.77;;;7.00;;
529;SDS011;251;48.704;9.210;2023-05-09T05:47:13;17.83;;;5.90;;
529;SDS011;251;48.704;9.210;2023-05-09T05:49:40;12.47;;;8.77;;
529;SDS011;251;48.704;9.210;2023-05-09T05:52:08;7.83;;;6.50;;
529;SDS011;251;48.704;9.210;2023-05-09T05:54:35;8.00;;;6.27;;
529;SDS011;251;48.704;9.210;2023-05-09T05:57:02;17.03;;;7.67;;
529;SDS011;251;48.704;9.210;2023-05-09T05:59:29;9.30;;;6.90;;
529;SDS011;251;48.704;9.210;2023-05-09T06:01:56;11.33;;;6.90;;
529;SDS011;251;48.704;9.210;2023-05-09T06:04:25;7.43;;;6.30;;
529;SDS011;251;48.704;9.210;2023-05-09T06:06:53;9.30;;;6.40;;
529;SDS011;251;48.704;9.210;2023-05-09T06:09:19;8.90;;;7.00;;
529;SDS011;251;48.704;9.210;2023-05-09T06:11:46;10.83;;;7.23;;
529;SDS011;251;48.704;9.210;2023-05-09T06:14:13;9.20;;;5.87;;
529;SDS011;251;48.704;9.210;2023-05-09T06:16:40;9.20;;;6.03;;
529;SDS011;251;48.704;9.210;2023-05-09T06:19:07;12.60;;;7.57;;
529;SDS011;251;48.704;9.210;2023-05-09T06:21:35;14.03;;;7.57;;
529;SDS011;251;48.704;9.210;2023-05-09T06:24:02;10.07;;;7.57;;
529;SDS011;251;48.704;9.210;2023-05-09T06:26:30;12.87;;;7.73;;
529;SDS011;251;48.704;9.210;2023-05-09T06:28:57;9.37;;;7.13;;
529;SDS011;251;48.704;9.210;2023-05-09T06:31:24;8.90;;;6.70;;
529;SDS011;251;48.704;9.210;2023-05-09T06:33:51;9.53;;;7.30;;
529;SDS011;251;48.704;9.210;2023-05-09T06:36:18;16.97;;;8.83;;
529;SDS011;251;48.704;9.210;2023-05-09T06:38:46;9.13;;;7.63;;
529;SDS011;251;48.704;9.210;2023-05-09T06:41:12;7.80;;;6.03;;
529;SDS011;251;48.704;9.210;2023-05-09T06:43:39;11.47;;;7.80;;
529;SDS011;251;48.704;9.210;2023-05-09T06:46:06;8.57;;;5.90;;
529;SDS011;251;48.704;9.210;2023-05-09T06:48:33;8.90;;;6.50;;
529;SDS011;251;48.704;9.210;2023-05-09T06:51:00;10.00;;;6.33;;
529;SDS011;251;48.704;9.210;2023-05-09T06:53:27;9.27;;;6.27;;
529;SDS011;251;48.704;9.210;2023-05-09T06:55:55;6.87;;;4.63;;
529;SDS011;251;48.704;9.210;2023-05-09T06:58:22;8.83;;;5.77;;
529;SDS011;251;48.704;9.210;2023-05-09T07:00:49;8.17;;;6.17;;
529;SDS011;251;48.704;9.210;2023-05-09T07:03:16;7.97;;;5.10;;
529;SDS011;251;48.704;9.210;2023-05-09T07:05:43;8.60;;;6.07;;
529;SDS011;251;48.704;9.210;2023-05-09T07:08:10;16.50;;;9.10;;
529;SDS011;251;48.704;9.210;2023-05-09T07:10:37;9.63;;;6.33;;
529;SDS011;251;48.704;9.210;2023-05-09T07:13:05;8.83;;;5.80;;
529;SDS011;251;48.704;9.210;2023-05-09T07:15:32;7.90;;;5.27;;
529;SDS011;251;48.704;9.210;2023-05-09T07:17:59;7.23;;;5.50;;
529;SDS011;251;48.704;9.210;2023-05-09T07:20:26;9.50;;;6.63;;
529;SDS011;251;48.704;9.210;2023-05-09T07:22:52;9.60;;;6.10;;
529;SDS011;251;48.704;9.210;2023-05-09T07:25:19;6.57;;;5.00;;
529;SDS011;251;48.704;9.210;2023-05-09T07:27:47;5.93;;;5.07;;
529;SDS011;251;48.704;9.210;2023-05-09T07:30:15;7.17;;;5.40;;
529;SDS011;251;48.704;9.210;2023-05-09T07:32:42;9.00;;;5.97;;
529;SDS011;251;48.704;9.210;2023-05-09T07:35:09;9.50;;;6.10;;
529;SDS011;251;48.704;9.210;2023-05-09T07:37:36;5.83;;;4.70;;
529;SDS011;251;48.704;9.210;2023-05-09T07:40:03;8.63;;;5.90;;
529;SDS011;251;48.704;9.210;2023-05-09T07:42:30;7.80;;;5.20;;
529;SDS011;251;48.704;9.210;2023-05-09T07:44:57;6.83;;;5.47;;
529;SDS011;251;48.704;9.210;2023-05-09T07:47:26;6.30;;;4.90;;
529;SDS011;251;48.704;9.210;2023-05-09T07:49:52;6.30;;;5.30;;
529;SDS011;251;48.704;9.210;2023-05-09T07:52:19;9.57;;;6.37;;
529;SDS011;251;48.704;9.210;2023-05-09T07:54:46;13.00;;;8.63;;
529;SDS011;251;48.704;9.210;2023-05-09T07:57:13;7.63;;;5.87;;
529;SDS011;251;48.704;9.210;2023-05-09T07:59:40;12.13;;;7.00;;
529;SDS011;251;48.704;9.210;2023-05-09T08:02:07;10.17;;;7.23;;
529;SDS011;251;48.704;9.210;2023-05-09T08:04:35;7.10;;;5.93;;
529;SDS011;251;48.704;9.210;2023-05-09T08:07:05;6.30;;;4.43;;
529;SDS011;251;48.704;9.210;2023-05-09T08:09:33;5.67;;;4.90;;
529;SDS011;251;48.704;9.210;2023-05-09T08:12:00;9.33;;;4.30;;
529;SDS011;251;48.704;9.210;2023-05-09T08:14:27;8.97;;;5.90;;
529;SDS011;251;48.704;9.210;2023-05-09T08:16:53;7.90;;;5.60;;
529;SDS011;251;48.704;9.210;2023-05-09T08:19:20;6.80;;;6.10;;
529;SDS011;251;48.704;9.210;2023-05-09T08:21:51;7.37;;;5.57;;
529;SDS011;251;48.704;9.210;2023-05-09T08:24:18;5.87;;;4.30;;
529;SDS011;251;48.704;9.210;2023-05-09T08:26:45;6.77;;;5.43;;
529;SDS011;251;48.704;9.210;2023-05-09T08:29:12;6.37;;;4.70;;
529;SDS011;251;48.704;9.210;2023-05-09T08:31:38;7.93;;;4.90;;
529;SDS011;251;48.704;9.210;2023-05-09T08:34:05;6.83;;;5.10;;
529;SDS011;251;48.704;9.210;2023-05-09T08:36:32;7.80;;;4.30;;
529;SDS011;251;48.704;9.210;2023-05-09T08:39:00;4.20;;;3.10;;
529;SDS011;251;48.704;9.210;2023-05-09T08:41:27;5.20;;;3.67;;
529;SDS011;251;48.704;9.210;2023-05-09T08:44:00;4.50;;;3.67;;
529;SDS011;251;48.704;9.210;2023-05-09T08:46:29;7.03;;;4.90;;
529;SDS011;251;48.704;9.210;2023-05-09T08:48:59;7.17;;;4.30;;
529;SDS011;251;48.704;9.210;2023-05-09T08:51:26;5.97;;;3.87;;
529;SDS011;251;48.704;9.210;2023-05-09T08:53:56;6.90;;;5.00;;
529;SDS011;251;48.704;9.210;2023-05-09T08:56:25;4.83;;;4.30;;
529;SDS011;251;48.704;9.210;2023-05-09T08:58:52;7.00;;;4.40;;
529;SDS011;251;48.704;9.210;2023-05-09T09:01:20;5.87;;;4.80;;
529;SDS011;251;48.704;9.210;2023-05-09T09:03:48;5.60;;;3.80;;
529;SDS011;251;48.704;9.210;2023-05-09T09:06:16;6.07;;;4.07;;
529;SDS011;251;48.704;9.210;2023-05-09T09:08:44;7.07;;;4.47;;
529;SDS011;251;48.704;9.210;2023-05-09T09:11:13;5.07;;;4.33;;
529;SDS011;251;48.704;9.210;2023-05-09T09:13:42;5.20;;;3.80;;
529;SDS011;251;48.704;9.210;2023-05-09T09:16:12;5.73;;;4.13;;
529;SDS011;251;48.704;9.210;2023-05-09T09:18:44;7.20;;;3.93;;
529;SDS011;251;48.704;9.210;2023-05-09T09:21:11;5.47;;;3.83;;
529;SDS011;251;48.704;9.210;2023-05-09T09:23:42;5.10;;;3.30;;
529;SDS011;251;48.704;9.210;2023-05-09T09:26:09;4.50;;;3.40;;
529;SDS011;251;48.704;9.210;2023-05-09T09:28:36;4.83;;;3.83;;
529;SDS011;251;48.704;9.210;2023-05-09T09:33:59;8.00;;;4.13;;
529;SDS011;251;48.704;9.210;2023-05-09T09:36:26;4.67;;;3.73;;
529;SDS011;251;48.704;9.210;2023-05-09T09:38:57;5.23;;;3.83;;
529;SDS011;251;48.704;9.210;2023-05-09T09:41:28;4.20;;;3.57;;
529;SDS011;251;48.704;9.210;2023-05-09T09:43:57;4.97;;;3.83;;
529;SDS011;251;48.704;9.210;2023-05-09T09:46:23;6.83;;;3.33;;
529;SDS011;251;48.704;9.210;2023-05-09T09:48:50;8.50;;;5.07;;
529;SDS011;251;48.704;9.210;2023-05-09T09:51:22;4.73;;;3.27;;
529;SDS011;251;48.704;9.210;2023-05-09T09:53:52;7.27;;;4.00;;
529;SDS011;251;48.704;9.210;2023-05-09T09:56:19;4.30;;;2.93;;
529;SDS011;251;48.704;9.210;2023-05-09T09:58:46;6.73;;;4.10;;
529;SDS011;251;48.704;9.210;2023-05-09T10:01:13;3.70;;;3.13;;
529;SDS011;251;48.704;9.210;2023-05-09T10:03:41;4.80;;;3.13;;
529;SDS011;251;48.704;9.210;2023-05-09T10:06:09;5.10;;;4.13;;
529;SDS011;251;48.704;9.210;2023-05-09T10:08:38;5.90;;;4.30;;
529;SDS011;251;48.704;9.210;2023-05-09T10:11:05;5.80;;;4.40;;
529;SDS011;251;48.704;9.210;2023-05-09T10:13:32;6.43;;;5.00;;
529;SDS011;251;48.704;9.210;2023-05-09T10:16:02;6.17;;;4.50;;
529;SDS011;251;48.704;9.210;2023-05-09T10:18:29;4.03;;;3.30;;
529;SDS011;251;48.704;9.210;2023-05-09T10:20:57;5.90;;;4.20;;
529;SDS011;251;48.704;9.210;2023-05-09T10:23:28;7.20;;;4.50;;
529;SDS011;251;48.704;9.210;2023-05-09T10:25:59;5.97;;;4.03;;
529;SDS011;251;48.704;9.210;2023-05-09T10:28:34;4.40;;;3.20;;
529;SDS011;251;48.704;9.210;2023-05-09T10:31:04;5.63;;;3.37;;
529;SDS011;251;48.704;9.210;2023-05-09T10:33:40;5.77;;;3.77;;
529;SDS011;251;48.704;9.210;2023-05-09T10:36:11;3.53;;;3.07;;
529;SDS011;251;48.704;9.210;2023-05-09T10:38:40;4.07;;;2.83;;
529;SDS011;251;48.704;9.210;2023-05-09T10:41:09;4.83;;;3.80;;
529;SDS011;251;48.704;9.210;2023-05-09T10:43:37;5.80;;;4.87;;
529;SDS011;251;48.704;9.210;2023-05-09T10:46:05;4.80;;;2.93;;
529;SDS011;251;48.704;9.210;2023-05-09T10:48:32;6.93;;;4.07;;
529;SDS011;251;48.704;9.210;2023-05-09T10:50:59;3.83;;;2.70;;
529;SDS011;251;48.704;9.210;2023-05-09T10:53:39;5.60;;;3.33;;
529;SDS011;251;48.704;9.210;2023-05-09T10:56:06;4.17;;;2.60;;
529;SDS011;251;48.704;9.210;2023-05-09T10:58:34;6.03;;;2.67;;
529;SDS011;251;48.704;9.210;2023-05-09T11:01:03;3.07;;;2.43;;
529;SDS011;251;48.704;9.210;2023-05-09T11:09:26;4.13;;;1.77;;
529;SDS011;251;48.704;9.210;2023-05-09T11:12:00;2.43;;;1.63;;
529;SDS011;251;48.704;9.210;2023-05-09T11:14:37;2.20;;;1.87;;
529;SDS011;251;48.704;9.210;2023-05-09T11:17:06;2.03;;;1.53;;
529;SDS011;251;48.704;9.210;2023-05-09T11:19:35;3.07;;;2.33;;
529;SDS011;251;48.704;9.210;2023-05-09T11:22:09;2.80;;;2.20;;
529;SDS011;251;48.704;9.210;2023-05-09T11:24:37;3.33;;;2.10;;
529;SDS011;251;48.704;9.210;2023-05-09T11:27:13;3.37;;;1.93;;
529;SDS011;251;48.704;9.210;2023-05-09T11:29:44;2.60;;;2.13;;
529;SDS011;251;48.704;9.210;2023-05-09T11:32:14;1.80;;;1.50;;
529;SDS011;251;48.704;9.210;2023-05-09T11:34:42;2.47;;;1.30;;
529;SDS011;251;48.704;9.210;2023-05-09T11:37:10;2.47;;;1.90;;
529;SDS011;251;48.704;9.210;2023-05-09T11:42:24;2.17;;;1.43;;
529;SDS011;251;48.704;9.210;2023-05-09T11:44:53;2.40;;;1.57;;
529;SDS011;251;48.704;9.210;2023-05-09T11:47:22;2.20;;;1.80;;
529;SDS011;251;48.704;9.210;2023-05-09T11:49:49;1.50;;;0.97;;
529;SDS011;251;48.704;9.210;2023-05-09T11:52:17;1.47;;;0.97;;
529;SDS011;251;48.704;9.210;2023-05-09T11:54:44;1.43;;;1.00;;
529;SDS011;251;48.704;9.210;2023-05-09T11:57:11;1.50;;;1.03;;
529;SDS011;251;48.704;9.210;2023-05-09T11:59:42;2.90;;;1.30;;
529;SDS011;251;48.704;9.210;2023-05-09T12:02:10;1.50;;;1.10;;
529;SDS011;251;48.704;9.210;2023-05-09T12:04:37;2.13;;;1.17;;
529;SDS011;251;48.704;9.210;2023-05-09T12:07:04;1.60;;;0.80;;
529;SDS011;251;48.704;9.210;2023-05-09T12:09:31;1.30;;;0.80;;
529;SDS011;251;48.704;9.210;2023-05-09T12:12:05;1.60;;;1.13;;
529;SDS011;251;48.704;9.210;2023-05-09T12:14:35;1.30;;;0.80;;
529;SDS011;251;48.704;9.210;2023-05-09T12:17:04;1.30;;;0.90;;
529;SDS011;251;48.704;9.210;2023-05-09T12:19:31;1.50;;;0.97;;
529;SDS011;251;48.704;9.210;2023-05-09T12:21:58;1.60;;;1.10;;
529;SDS011;251;48.704;9.210;2023-05-09T12:24:26;1.63;;;0.90;;
529;SDS011;251;48.704;9.210;2023-05-09T12:26:54;1.30;;;0.80;;
529;SDS011;251;48.704;9.210;2023-05-09T12:29:21;1.13;;;0.70;;
529;SDS011;251;48.704;9.210;2023-05-09T12:31:49;1.90;;;1.17;;
529;SDS011;251;48.704;9.210;2023-05-09T12:34:19;1.53;;;0.77;;
529;SDS011;251;48.704;9.210;2023-05-09T12:36:47;1.10;;;0.60;;
529;SDS011;251;48.704;9.210;2023-05-09T12:39:15;1.60;;;0.80;;
529;SDS011;251;48.704;9.210;2023-05-09T12:41:46;1.33;;;0.83;;
529;SDS011;251;48.704;9.210;2023-05-09T12:44:16;1.20;;;0.60;;
529;SDS011;251;48.704;9.210;2023-05-09T12:46:55;4.13;;;1.20;;
529;SDS011;251;48.704;9.210;2023-05-09T12:49:24;1.20;;;0.70;;
529;SDS011;251;48.704;9.210;2023-05-09T12:51:52;1.10;;;0.67;;
529;SDS011;251;48.704;9.210;2023-05-09T12:54:20;1.40;;;0.90;;
529;SDS011;251;48.704;9.210;2023-05-09T12:56:48;1.57;;;1.00;;
529;SDS011;251;48.704;9.210;2023-05-09T12:59:20;1.20;;;0.80;;
529;SDS011;251;48.704;9.210;2023-05-09T13:01:51;1.30;;;0.90;;
529;SDS011;251;48.704;9.210;2023-05-09T13:04:20;1.50;;;1.13;;
529;SDS011;251;48.704;9.210;2023-05-09T13:06:49;1.30;;;0.80;;
529;SDS011;251;48.704;9.210;2023-05-09T13:09:18;1.87;;;1.00;;
529;SDS011;251;48.704;9.210;2023-05-09T13:11:44;1.50;;;1.07;;
529;SDS011;251;48.704;9.210;2023-05-09T13:14:11;1.53;;;1.13;;
529;SDS011;251;48.704;9.210;2023-05-09T13:16:39;1.30;;;0.70;;
529;SDS011;251;48.704;9.210;2023-05-09T13:19:06;1.37;;;0.93;;
529;SDS011;251;48.704;9.210;2023-05-09T13:21:33;1.60;;;1.00;;
529;SDS011;251;48.704;9.210;2023-05-09T13:24:02;1.90;;;1.37;;
529;SDS011;251;48.704;9.210;2023-05-09T13:26:29;1.70;;;1.00;;
529;SDS011;251;48.704;9.210;2023-05-09T13:28:56;1.60;;;0.97;;
529;SDS011;251;48.704;9.210;2023-05-09T13:31:23;1.80;;;1.17;;
529;SDS011;251;48.704;9.210;2023-05-09T13:33:50;1.60;;;1.13;;
529;SDS011;251;48.704;9.210;2023-05-09T13:36:17;1.50;;;1.17;;
529;SDS011;251;48.704;9.210;2023-05-09T13:38:44;3.27;;;1.10;;
529;SDS011;251;48.704;9.210;2023-05-09T13:41:12;1.83;;;1.10;;
529;SDS011;251;48.704;9.210;2023-05-09T13:43:45;1.40;;;0.97;;
529;SDS011;251;48.704;9.210;2023-05-09T13:46:11;1.70;;;1.40;;
529;SDS011;251;48.704;9.210;2023-05-09T13:48:38;2.47;;;1.70;;
529;SDS011;251;48.704;9.210;2023-05-09T13:51:06;1.77;;;0.97;;
529;SDS011;251;48.704;9.210;2023-05-09T13:53:33;1.73;;;1.23;;
529;SDS011;251;48.704;9.210;2023-05-09T13:56:00;1.30;;;0.80;;
529;SDS011;251;48.704;9.210;2023-05-09T13:58:28;1.77;;;1.07;;
529;SDS011;251;48.704;9.210;2023-05-09T14:00:55;1.40;;;1.00;;
529;SDS011;251;48.704;9.210;2023-05-09T14:03:22;1.50;;;0.87;;
529;SDS011;251;48.704;9.210;2023-05-09T14:05:49;1.83;;;1.13;;
529;SDS011;251;48.704;9.210;2023-05-09T14:08:16;2.40;;;1.27;;
529;SDS011;251;48.704;9.210;2023-05-09T14:10:43;3.53;;;1.90;;
529;SDS011;251;48.704;9.210;2023-05-09T14:13:10;2.50;;;2.17;;
529;SDS011;251;48.704;9.210;2023-05-09T14:15:38;3.77;;;1.33;;
529;SDS011;251;48.704;9.210;2023-05-09T14:18:05;1.60;;;1.17;;
529;SDS011;251;48.704;9.210;2023-05-09T14:20:32;1.80;;;1.07;;
529;SDS011;251;48.704;9.210;2023-05-09T14:22:59;2.57;;;1.77;;
529;SDS011;251;48.704;9.210;2023-05-09T14:25:25;1.73;;;1.27;;
529;SDS011;251;48.704;9.210;2023-05-09T14:27:52;1.80;;;0.97;;
529;SDS011;251;48.704;9.210;2023-05-09T14:30:19;6.00;;;1.30;;
529;SDS011;251;48.704;9.210;2023-05-09T14:32:47;3.00;;;1.43;;
529;SDS011;251;48.704;9.210;2023-05-09T14:35:14;1.50;;;0.83;;
529;SDS011;251;48.704;9.210;2023-05-09T14:37:42;1.67;;;1.20;;
529;SDS011;251;48.704;9.210;2023-05-09T14:40:09;1.70;;;1.10;;
529;SDS011;251;48.704;9.210;2023-05-09T14:42:36;3.17;;;1.20;;
529;SDS011;251;48.704;9.210;2023-05-09T14:45:03;1.63;;;1.00;;
529;SDS011;251;48.704;9.210;2023-05-09T14:47:31;1.30;;;0.77;;
529;SDS011;251;48.704;9.210;2023-05-09T14:49:59;2.27;;;0.90;;
529;SDS011;251;48.704;9.210;2023-05-09T14:52:26;1.30;;;0.70;;
529;SDS011;251;48.704;9.210;2023-05-09T14:54:53;1.80;;;0.90;;
529;SDS011;251;48.704;9.210;2023-05-09T14:57:20;2.40;;;1.20;;
529;SDS011;251;48.704;9.210;2023-05-09T14:59:47;2.67;;;0.90;;
529;SDS011;251;48.704;9.210;2023-05-09T15:02:14;1.77;;;1.20;;
529;SDS011;251;48.704;9.210;2023-05-09T15:04:41;1.37;;;0.87;;
529;SDS011;251;48.704;9.210;2023-05-09T15:07:10;1.40;;;0.77;;
529;SDS011;251;48.704;9.210;2023-05-09T15:09:37;1.50;;;0.93;;
529;SDS011;251;48.704;9.210;2023-05-09T15:12:04;1.57;;;1.10;;
529;SDS011;251;48.704;9.210;2023-05-09T15:14:30;1.40;;;0.73;;
529;SDS011;251;48.704;9.210;2023-05-09T15:16:57;1.30;;;0.80;;
529;SDS011;251;48.704;9.210;2023-05-09T15:19:27;1.90;;;0.87;;
529;SDS011;251;48.704;9.210;2023-05-09T15:21:56;1.50;;;0.97;;
529;SDS011;251;48.704;9.210;2023-05-09T15:24:24;2.33;;;1.20;;
529;SDS011;251;48.704;9.210;2023-05-09T15:26:51;2.20;;;1.17;;
529;SDS011;251;48.704;9.210;2023-05-09T15:29:18;1.50;;;0.70;;
529;SDS011;251;48.704;9.210;2023-05-09T15:31:45;1.27;;;0.70;;
529;SDS011;251;48.704;9.210;2023-05-09T15:34:13;1.27;;;0.70;;
529;SDS011;251;48.704;9.210;2023-05-09T15:36:40;1.50;;;1.00;;
529;SDS011;251;48.704;9.210;2023-05-09T15:39:07;1.70;;;1.10;;
529;SDS011;251;48.704;9.210;2023-05-09T15:41:35;1.60;;;1.10;;
529;SDS011;251;48.704;9.210;2023-05-09T15:44:01;1.80;;;1.00;;
529;SDS011;251;48.704;9.210;2023-05-09T15:46:28;1.67;;;0.90;;
529;SDS011;251;48.704;9.210;2023-05-09T15:48:55;3.77;;;1.33;;
529;SDS011;251;48.704;9.210;2023-05-09T15:51:22;1.70;;;1.00;;
529;SDS011;251;48.704;9.210;2023-05-09T15:53:49;2.07;;;1.37;;
529;SDS011;251;48.704;9.210;2023-05-09T15:56:16;1.40;;;0.80;;
529;SDS011;251;48.704;9.210;2023-05-09T15:58:44;2.17;;;1.13;;
529;SDS011;251;48.704;9.210;2023-05-09T16:01:10;1.63;;;0.90;;
529;SDS011;251;48.704;9.210;2023-05-09T16:03:38;1.40;;;0.80;;
529;SDS011;251;48.704;9.210;2023-05-09T16:06:05;1.33;;;0.83;;